CheckWX is a tool to help pilots better visualize weather data.  It is not intended as a substitute for an official pre-flight weather briefing.

01:28:14 UTC

RCMQ METAR
Taichung Ching Chuang Kang Airport
Taichung City, Taiwan
Current

28 mins ago

RCMQ 150100Z 19010KT 9999 FEW010 SCT020 BKN060 32/24 Q1007 NOSIG RMK A2976
Observed
Jul-15 @ 01:00 UTC
Wind
  • 190° at 10 KTS
Visibility
10,000+ meters
Flight Rules
VFR
Cloud Levels
  • Few at 1,000' AGL
  • Scattered at 2,000' AGL
  • Broken at 6,000' AGL
Temperature
32°C / 90°F
Dewpoint
24°C / 75°F
Humidity
63%
Altimeter
29.73" Hg
Pressure
1006.92 hPa
Previous

58 mins ago

RCMQ 150030Z 17007KT 9999 FEW012 SCT020 BKN060 32/24 Q1007 NOSIG RMK A2976
Observed
Jul-15 @ 00:30 UTC
Wind
  • 170° at 7 KTS
Visibility
10,000+ meters
Flight Rules
VFR
Cloud Levels
  • Few at 1,200' AGL
  • Scattered at 2,000' AGL
  • Broken at 6,000' AGL
Temperature
32°C / 90°F
Dewpoint
24°C / 75°F
Humidity
63%
Altimeter
29.73" Hg
Pressure
1006.92 hPa
Previous

1 hour ago

RCMQ 150000Z 16007KT 9999 FEW012 SCT020 BKN060 31/24 Q1008 NOSIG RMK A2977
Observed
Jul-15 @ 00:00 UTC
Wind
  • 160° at 7 KTS
Visibility
10,000+ meters
Flight Rules
VFR
Cloud Levels
  • Few at 1,200' AGL
  • Scattered at 2,000' AGL
  • Broken at 6,000' AGL
Temperature
31°C / 88°F
Dewpoint
24°C / 75°F
Humidity
66%
Altimeter
29.76" Hg
Pressure
1007.92 hPa